Time;durP1;ratioP1;P1;durP2;ratioP2;P2;SDS_P1;SDS_P2;PMS_P1;PMS_P2;Temp;Humidity;BMP_temperature;BMP_pressure;BME280_temperature;BME280_humidity;BME280_pressure;Samples;Min_cycle;Max_cycle;Signal;HPM_P1;HPM_P2
2021/11/17 02:25:58;;;;;;;;;;;11.30;99.90;;;;;;5007675;28;19976;-74
2021/11/17 02:28:24;;;;;;;;;;;11.30;99.90;;;;;;5009547;28;19913;-74
2021/11/17 02:30:58;;;;;;;;;;;11.30;99.90;;;;;;5003574;28;20335;-74
2021/11/17 02:33:33;;;;;;;;;;;11.30;99.90;;;;;;5013252;28;19922;-73
2021/11/17 02:36:00;;;;;;;;;;;11.30;99.90;;;;;;5014635;28;20441;-73
2021/11/17 02:38:26;;;;;;;;;;;11.30;99.90;;;;;;5013674;28;19948;-74
2021/11/17 02:40:54;;;;;;;;;;;11.30;99.90;;;;;;5016411;28;19976;-73
2021/11/17 02:43:26;;;;;;;;;;;11.30;99.90;;;;;;5006614;28;20008;-74
2021/11/17 02:45:55;;;;;;;;;;;11.40;99.90;;;;;;5009358;28;20264;-74
2021/11/17 02:48:20;;;;;;;;;;;11.40;99.90;;;;;;5004004;28;20250;-75
2021/11/17 02:50:49;;;;;;;;;;;11.40;99.90;;;;;;5009538;28;19913;-75
2021/11/17 02:53:21;;;;;;;;;;;11.40;99.90;;;;;;5002785;28;19914;-74
2021/11/17 02:56:02;;;;;;;;;;;11.40;99.90;;;;;;5007700;28;19913;-74
2021/11/17 02:58:27;;;;;;;;;;;11.40;99.90;;;;;;5002188;28;19925;-74
2021/11/17 03:01:00;;;;;;;;;;;11.30;99.90;;;;;;5007601;28;19913;-74
2021/11/17 03:03:41;;;;;;;;;;;11.40;99.90;;;;;;5011583;28;19959;-74
2021/11/17 03:06:30;;;;;;;;;;;11.40;99.90;;;;;;5003036;28;20290;-75
2021/11/17 03:09:08;;;;;;;;;;;11.40;99.90;;;;;;5006684;28;19971;-75
2021/11/17 03:11:49;;;;;;;;;;;11.40;99.90;;;;;;5011941;28;19921;-75
2021/11/17 03:14:17;;;;;;;;;;;11.40;99.90;;;;;;5012967;28;20069;-75
2021/11/17 03:16:53;;;;;;;;;;;11.40;99.90;;;;;;5010923;28;20374;-75
2021/11/17 03:19:21;;;;;;;;;;;11.30;99.90;;;;;;5007809;28;19965;-75
2021/11/17 03:21:56;;;;;;;;;;;11.40;99.90;;;;;;5010775;28;19925;-75
2021/11/17 03:24:22;;;;;;;;;;;11.40;99.90;;;;;;5008209;28;19941;-75
2021/11/17 03:27:06;;;;;;;;;;;11.30;99.90;;;;;;5009206;28;20259;-75
2021/11/17 03:29:40;;;;;;;;;;;11.30;99.90;;;;;;5010409;28;19987;-74
2021/11/17 03:32:11;;;;;;;;;;;11.30;99.90;;;;;;5008692;28;19964;-75
2021/11/17 03:34:55;;;;;;;;;;;11.20;99.90;;;;;;5007536;28;20278;-75
2021/11/17 03:37:33;;;;;;;;;;;11.20;99.90;;;;;;5010792;28;19949;-75
2021/11/17 03:40:18;;;;;;;;;;;11.20;99.90;;;;;;5013297;28;19924;-75
2021/11/17 03:43:02;;;;;;;;;;;11.20;99.90;;;;;;5008716;28;19960;-75
2021/11/17 03:45:27;;;;;;;;;;;11.20;99.90;;;;;;5012852;28;19913;-75
2021/11/17 03:47:56;;;;;;;;;;;11.10;99.90;;;;;;5007390;28;19920;-75
2021/11/17 03:50:31;;;;;;;;;;;11.10;99.90;;;;;;5002945;28;19921;-74
2021/11/17 03:53:02;;;;;;;;;;;11.10;99.90;;;;;;5006036;28;19913;-74
2021/11/17 03:55:39;;;;;;;;;;;11.00;99.90;;;;;;5008076;28;19913;-74
2021/11/17 03:58:23;;;;;;;;;;;11.00;99.90;;;;;;5005376;28;20294;-74
2021/11/17 04:00:49;;;;;;;;;;;11.10;99.90;;;;;;5012587;28;19989;-74
2021/11/17 04:03:17;;;;;;;;;;;11.10;99.90;;;;;;5023966;28;19913;-73
2021/11/17 04:05:49;;;;;;;;;;;11.10;99.90;;;;;;5020852;28;19914;-74
2021/11/17 04:08:17;;;;;;;;;;;11.10;99.90;;;;;;5002344;28;19928;-74
2021/11/17 04:10:52;;;;;;;;;;;11.10;99.90;;;;;;5010398;28;20395;-75
2021/11/17 04:13:36;;;;;;;;;;;11.10;99.90;;;;;;5006126;28;19913;-74
2021/11/17 04:16:02;;;;;;;;;;;11.10;99.90;;;;;;5012406;28;19928;-75
2021/11/17 04:18:46;;;;;;;;;;;11.10;99.90;;;;;;5007100;28;19918;-75
2021/11/17 04:21:20;;;;;;;;;;;11.00;99.90;;;;;;5004873;28;19928;-74
2021/11/17 04:23:49;;;;;;;;;;;11.10;99.90;;;;;;5012384;28;20391;-74
2021/11/17 04:26:30;;;;;;;;;;;11.10;99.90;;;;;;5011468;28;19913;-74
2021/11/17 04:28:56;;;;;;;;;;;11.00;99.90;;;;;;5005921;28;19913;-75
2021/11/17 04:31:28;;;;;;;;;;;11.00;99.90;;;;;;5008528;28;20026;-74
2021/11/17 04:34:11;;;;;;;;;;;11.00;99.90;;;;;;5025475;28;19917;-75
2021/11/17 04:36:40;;;;;;;;;;;11.10;99.90;;;;;;5006075;28;20032;-74
2021/11/17 04:39:12;;;;;;;;;;;11.00;99.90;;;;;;5005999;28;19971;-75
2021/11/17 04:41:56;;;;;;;;;;;11.00;99.90;;;;;;5011628;28;19936;-75
2021/11/17 04:44:28;;;;;;;;;;;10.90;99.90;;;;;;5006745;28;19957;-74
2021/11/17 04:46:56;;;;;;;;;;;10.90;99.90;;;;;;5011579;28;19984;-75
2021/11/17 04:49:38;;;;;;;;;;;10.90;99.90;;;;;;5007820;28;20374;-75
2021/11/17 04:52:14;;;;;;;;;;;10.90;99.90;;;;;;5023688;28;19940;-76
2021/11/17 04:54:58;;;;;;;;;;;10.80;99.90;;;;;;5008215;28;20050;-75
2021/11/17 04:57:26;;;;;;;;;;;10.90;99.90;;;;;;5005036;28;19913;-75
2021/11/17 04:59:58;;;;;;;;;;;11.00;99.90;;;;;;5006705;28;19924;-75
2021/11/17 05:02:24;;;;;;;;;;;11.00;99.90;;;;;;5006531;28;19955;-75
2021/11/17 05:05:08;;;;;;;;;;;11.10;99.90;;;;;;5010613;28;20295;-75
2021/11/17 05:07:49;;;;;;;;;;;11.20;99.90;;;;;;5009170;28;20052;-75
2021/11/17 05:10:14;;;;;;;;;;;11.20;99.90;;;;;;5005511;28;19918;-75
2021/11/17 05:12:40;;;;;;;;;;;11.20;99.90;;;;;;5008000;28;20442;-75
2021/11/17 05:15:12;;;;;;;;;;;11.20;99.90;;;;;;5008642;28;19921;-75
2021/11/17 05:17:47;;;;;;;;;;;11.20;99.90;;;;;;5001244;28;20394;-75
2021/11/17 05:20:49;;;;;;;;;;;11.20;99.90;;;;;;5011412;28;19955;-75
2021/11/17 05:23:32;;;;;;;;;;;11.20;99.90;;;;;;5002739;28;19948;-76
2021/11/17 05:26:15;;;;;;;;;;;11.20;99.90;;;;;;5010329;28;19913;-74
2021/11/17 05:28:41;;;;;;;;;;;11.20;99.90;;;;;;5011080;28;19913;-73
2021/11/17 05:31:09;;;;;;;;;;;11.20;99.90;;;;;;5012564;28;19935;-75
2021/11/17 05:33:57;;;;;;;;;;;11.20;99.90;;;;;;5013255;28;19945;-75
2021/11/17 05:36:40;;;;;;;;;;;11.20;99.90;;;;;;5010596;28;20016;-75
2021/11/17 05:39:09;;;;;;;;;;;11.30;99.90;;;;;;5024794;28;19913;-74
2021/11/17 05:41:55;;;;;;;;;;;11.30;99.90;;;;;;5008597;28;20326;-73
2021/11/17 05:44:27;;;;;;;;;;;11.20;99.90;;;;;;5007302;28;19996;-73
2021/11/17 05:47:08;;;;;;;;;;;11.30;99.90;;;;;;5014624;28;19960;-72
2021/11/17 05:49:48;;;;;;;;;;;11.20;99.90;;;;;;5015949;28;19913;-75
2021/11/17 05:52:29;;;;;;;;;;;11.20;99.90;;;;;;5004457;28;19920;-74
2021/11/17 05:54:55;;;;;;;;;;;11.20;99.90;;;;;;5008152;28;19921;-74
2021/11/17 05:57:29;;;;;;;;;;;11.20;99.90;;;;;;5013188;28;20252;-75
2021/11/17 05:59:57;;;;;;;;;;;11.20;99.90;;;;;;5009257;28;20394;-74
2021/11/17 06:02:23;;;;;;;;;;;11.20;99.90;;;;;;5014623;28;19909;-75
2021/11/17 06:04:49;;;;;;;;;;;11.20;99.90;;;;;;5011718;28;20367;-75
2021/11/17 06:07:14;;;;;;;;;;;11.20;99.90;;;;;;5011059;28;20048;-74
2021/11/17 06:09:39;;;;;;;;;;;11.20;99.90;;;;;;5010568;28;19924;-73
2021/11/17 06:12:12;;;;;;;;;;;11.20;99.90;;;;;;5012444;28;19955;-75
2021/11/17 06:14:39;;;;;;;;;;;11.30;99.90;;;;;;4998836;28;19914;-74
2021/11/17 06:17:18;;;;;;;;;;;11.30;99.90;;;;;;5002112;28;19972;-73
2021/11/17 06:19:46;;;;;;;;;;;11.40;99.90;;;;;;5009549;28;19917;-74
2021/11/17 06:22:12;;;;;;;;;;;11.40;99.90;;;;;;5012732;28;19955;-75
2021/11/17 06:24:39;;;;;;;;;;;11.40;99.90;;;;;;5011229;28;20016;-73
2021/11/17 06:27:06;;;;;;;;;;;11.40;99.90;;;;;;5021790;28;19913;-73
2021/11/17 06:29:34;;;;;;;;;;;11.40;99.90;;;;;;5030106;28;19925;-73
2021/11/17 06:32:00;;;;;;;;;;;11.50;99.90;;;;;;5030182;28;19925;-74
2021/11/17 06:34:38;;;;;;;;;;;11.50;99.90;;;;;;5030177;28;19995;-73
2021/11/17 06:37:05;;;;;;;;;;;11.60;99.90;;;;;;5023023;28;19910;-73
2021/11/17 06:39:31;;;;;;;;;;;11.60;99.90;;;;;;5021432;28;19917;-75
2021/11/17 06:41:57;;;;;;;;;;;11.70;99.90;;;;;;5028678;28;19972;-72
2021/11/17 06:44:23;;;;;;;;;;;11.80;99.90;;;;;;5023701;28;19921;-73
2021/11/17 06:46:49;;;;;;;;;;;11.80;99.90;;;;;;5015033;28;19967;-74
2021/11/17 06:49:15;;;;;;;;;;;11.80;99.90;;;;;;4998857;28;20437;-74
2021/11/17 06:51:41;;;;;;;;;;;11.80;99.90;;;;;;5014661;28;20004;-74
2021/11/17 06:54:06;;;;;;;;;;;11.80;99.90;;;;;;5028898;28;19909;-73
2021/11/17 06:56:32;;;;;;;;;;;11.90;99.90;;;;;;5029916;28;19916;-72
2021/11/17 06:58:57;;;;;;;;;;;11.90;99.90;;;;;;5028803;28;19921;-75
2021/11/17 07:01:24;;;;;;;;;;;11.90;99.90;;;;;;5023719;28;20000;-74
2021/11/17 07:03:49;;;;;;;;;;;12.00;99.90;;;;;;5025287;28;20386;-74
2021/11/17 07:06:15;;;;;;;;;;;12.00;99.90;;;;;;5031525;28;19968;-74
2021/11/17 07:08:41;;;;;;;;;;;12.10;99.90;;;;;;5031240;28;19948;-73
2021/11/17 07:11:06;;;;;;;;;;;12.10;99.90;;;;;;5032914;28;19981;-74
2021/11/17 07:13:32;;;;;;;;;;;12.00;99.90;;;;;;5034453;28;19917;-73
2021/11/17 07:15:57;;;;;;;;;;;12.00;99.90;;;;;;5031204;28;19920;-75
2021/11/17 07:18:23;;;;;;;;;;;12.00;99.90;;;;;;5028708;28;19959;-74
2021/11/17 07:20:49;;;;;;;;;;;11.90;99.90;;;;;;5023186;28;20032;-74
2021/11/17 07:23:15;;;;;;;;;;;11.90;99.90;;;;;;5013103;28;19971;-73
2021/11/17 07:25:41;;;;;;;;;;;11.90;99.90;;;;;;5014949;28;19917;-73
2021/11/17 07:28:07;;;;;;;;;;;11.90;99.90;;;;;;5019878;28;19914;-73
2021/11/17 07:30:34;;;;;;;;;;;11.90;99.90;;;;;;5024079;28;19920;-74
2021/11/17 07:33:02;;;;;;;;;;;11.90;99.90;;;;;;5026468;28;19913;-73
2021/11/17 07:35:28;;;;;;;;;;;11.90;99.90;;;;;;5023882;28;19936;-73
2021/11/17 07:37:54;;;;;;;;;;;12.00;99.90;;;;;;5011366;28;19910;-73
2021/11/17 07:40:20;;;;;;;;;;;12.10;99.90;;;;;;5007064;28;19996;-74
2021/11/17 07:42:46;;;;;;;;;;;12.10;99.90;;;;;;5009178;28;19910;-75
2021/11/17 07:45:13;;;;;;;;;;;12.20;99.90;;;;;;5005200;28;19910;-73
2021/11/17 07:47:39;;;;;;;;;;;12.30;99.90;;;;;;5023624;28;19917;-75
2021/11/17 07:50:06;;;;;;;;;;;12.30;99.90;;;;;;5024841;28;19921;-74
2021/11/17 07:52:32;;;;;;;;;;;12.40;99.90;;;;;;5014706;28;19910;-75
2021/11/17 07:54:58;;;;;;;;;;;12.30;99.90;;;;;;5004418;28;19914;-75
2021/11/17 07:57:24;;;;;;;;;;;12.40;99.90;;;;;;5003159;28;19910;-75
2021/11/17 07:59:50;;;;;;;;;;;12.40;99.90;;;;;;5017279;28;19922;-73
2021/11/17 08:02:15;;;;;;;;;;;12.50;99.90;;;;;;5018391;28;19917;-74
2021/11/17 08:04:42;;;;;;;;;;;12.40;99.90;;;;;;5005083;28;19922;-74
2021/11/17 08:07:15;;;;;;;;;;;12.40;99.90;;;;;;5017440;28;19917;-74
2021/11/17 08:09:42;;;;;;;;;;;12.50;99.90;;;;;;5023119;28;19945;-75
2021/11/17 08:12:08;;;;;;;;;;;12.50;99.90;;;;;;5019544;28;19910;-75
2021/11/17 08:14:33;;;;;;;;;;;12.60;99.90;;;;;;5025187;28;19952;-73
2021/11/17 08:17:00;;;;;;;;;;;12.70;99.90;;;;;;5031412;28;19971;-74
2021/11/17 08:19:26;;;;;;;;;;;12.80;99.90;;;;;;5019025;28;19929;-74
2021/11/17 08:21:51;;;;;;;;;;;12.90;99.90;;;;;;5025524;28;19918;-73
2021/11/17 08:24:17;;;;;;;;;;;13.00;99.90;;;;;;5028784;28;19909;-74
2021/11/17 08:26:43;;;;;;;;;;;13.10;99.90;;;;;;5012718;28;19910;-73
2021/11/17 08:29:09;;;;;;;;;;;13.00;99.90;;;;;;5006971;28;19910;-74
2021/11/17 08:31:36;;;;;;;;;;;13.00;99.90;;;;;;5050145;28;19913;-74
2021/11/17 08:34:02;;;;;;;;;;;13.10;99.90;;;;;;5034005;28;19956;-73
2021/11/17 08:36:27;;;;;;;;;;;13.10;99.90;;;;;;5033997;28;19977;-74
2021/11/17 08:38:54;;;;;;;;;;;13.10;99.90;;;;;;5028620;28;19925;-73
2021/11/17 08:41:21;;;;;;;;;;;13.20;99.90;;;;;;5030761;28;19945;-73
2021/11/17 08:43:47;;;;;;;;;;;13.30;99.90;;;;;;5033510;28;19957;-72
2021/11/17 08:46:13;;;;;;;;;;;13.30;99.90;;;;;;5033099;28;19940;-73
2021/11/17 08:48:39;;;;;;;;;;;13.30;99.90;;;;;;5030792;28;19964;-75
2021/11/17 08:51:06;;;;;;;;;;;13.40;99.90;;;;;;5023896;28;19914;-74
2021/11/17 08:53:34;;;;;;;;;;;13.40;99.90;;;;;;5026395;28;19985;-75
2021/11/17 08:56:00;;;;;;;;;;;13.50;99.90;;;;;;5033677;28;19953;-73
2021/11/17 08:58:26;;;;;;;;;;;13.50;99.90;;;;;;5030112;28;19940;-73
2021/11/17 09:00:52;;;;;;;;;;;13.60;99.90;;;;;;5029607;28;19921;-73
2021/11/17 09:03:18;;;;;;;;;;;13.70;99.90;;;;;;5026166;28;19985;-75
2021/11/17 09:05:48;;;;;;;;;;;13.90;99.90;;;;;;5033454;28;19913;-73
2021/11/17 09:08:14;;;;;;;;;;;13.90;99.90;;;;;;5028763;28;19914;-74
2021/11/17 09:10:43;;;;;;;;;;;13.90;99.90;;;;;;5027760;28;20059;-73
2021/11/17 09:13:09;;;;;;;;;;;14.00;99.90;;;;;;5028864;28;19934;-73
2021/11/17 09:15:37;;;;;;;;;;;14.10;99.90;;;;;;5032440;28;19898;-72
2021/11/17 09:18:03;;;;;;;;;;;14.30;99.90;;;;;;5014904;28;19997;-74
2021/11/17 09:20:29;;;;;;;;;;;14.60;99.90;;;;;;5023049;28;19909;-73
2021/11/17 09:22:55;;;;;;;;;;;14.60;99.90;;;;;;5031209;28;19923;-72
2021/11/17 09:25:23;;;;;;;;;;;14.60;99.90;;;;;;5032567;28;19913;-73
2021/11/17 09:27:48;;;;;;;;;;;14.50;99.90;;;;;;5031691;28;19960;-73
2021/11/17 09:30:18;;;;;;;;;;;14.50;99.90;;;;;;5017775;28;19913;-74
2021/11/17 09:32:44;;;;;;;;;;;14.60;99.90;;;;;;5018213;28;19910;-73
2021/11/17 09:35:11;;;;;;;;;;;14.50;99.90;;;;;;5014254;28;19917;-74
2021/11/17 09:37:37;;;;;;;;;;;14.50;99.90;;;;;;5016789;28;20001;-75
2021/11/17 09:40:05;;;;;;;;;;;14.40;99.90;;;;;;5018293;28;19925;-74
2021/11/17 09:42:30;;;;;;;;;;;14.40;99.90;;;;;;5016052;28;19917;-67
2021/11/17 09:44:56;;;;;;;;;;;14.40;99.90;;;;;;5012002;28;20334;-66
2021/11/17 09:47:22;;;;;;;;;;;14.40;99.90;;;;;;5011683;28;20359;-67
2021/11/17 09:50:00;;;;;;;;;;;14.30;99.90;;;;;;5011829;28;19920;-66
2021/11/17 09:52:35;;;;;;;;;;;14.30;99.90;;;;;;5013309;28;19910;-67
2021/11/17 09:55:08;;;;;;;;;;;14.30;99.90;;;;;;5013333;28;19996;-66
2021/11/17 09:57:36;;;;;;;;;;;14.40;99.90;;;;;;5012950;28;19910;-66
2021/11/17 10:00:05;;;;;;;;;;;14.50;99.90;;;;;;5011131;28;20054;-67
2021/11/17 10:02:39;;;;;;;;;;;14.50;99.90;;;;;;5011701;28;20000;-67
2021/11/17 10:05:05;;;;;;;;;;;14.60;99.90;;;;;;5011184;28;19914;-67
2021/11/17 10:12:55;;;;;;;;;;;15.30;99.90;;;;;;5011830;28;19909;-67
2021/11/17 10:15:23;;;;;;;;;;;15.50;99.90;;;;;;5014100;28;19909;-66
2021/11/17 10:17:53;;;;;;;;;;;15.60;99.90;;;;;;5014684;28;19931;-67
2021/11/17 10:20:19;;;;;;;;;;;15.70;99.90;;;;;;5009452;28;19917;-67
2021/11/17 10:22:47;;;;;;;;;;;15.70;99.90;;;;;;5015559;28;20371;-67
2021/11/17 10:25:14;;;;;;;;;;;15.80;99.90;;;;;;5007911;28;19914;-67
2021/11/17 10:27:56;;;;;;;;;;;15.90;99.90;;;;;;5014654;28;19921;-67
2021/11/17 10:30:28;;;;;;;;;;;15.90;99.90;;;;;;5008325;28;19909;-67
2021/11/17 10:32:59;;;;;;;;;;;16.00;99.90;;;;;;5015351;28;20363;-66
2021/11/17 10:35:30;;;;;;;;;;;16.00;99.90;;;;;;5014876;28;20039;-67
2021/11/17 10:38:05;;;;;;;;;;;16.00;99.90;;;;;;5015711;28;19959;-66
2021/11/17 10:40:32;;;;;;;;;;;15.90;99.90;;;;;;5015846;28;20056;-67
2021/11/17 10:43:08;;;;;;;;;;;16.00;99.90;;;;;;5019607;28;19914;-67
2021/11/17 10:45:38;;;;;;;;;;;16.10;99.90;;;;;;5019535;28;20012;-67
2021/11/17 10:48:15;;;;;;;;;;;16.10;99.90;;;;;;5018611;28;19921;-67
2021/11/17 10:50:41;;;;;;;;;;;15.90;99.90;;;;;;5015022;28;19910;-67
2021/11/17 10:53:10;;;;;;;;;;;16.00;99.90;;;;;;5014848;28;19996;-67
2021/11/17 10:55:39;;;;;;;;;;;16.00;99.90;;;;;;5013825;28;19919;-67
2021/11/17 10:58:06;;;;;;;;;;;16.00;99.90;;;;;;5020646;28;19913;-66
2021/11/17 11:00:34;;;;;;;;;;;16.10;99.90;;;;;;5033079;28;20289;-66
2021/11/17 11:03:01;;;;;;;;;;;16.10;99.90;;;;;;5014704;28;19914;-66
2021/11/17 11:05:28;;;;;;;;;;;16.00;99.90;;;;;;5014596;28;19909;-66
2021/11/17 11:08:01;;;;;;;;;;;16.00;99.90;;;;;;5013302;28;19918;-67
2021/11/17 11:10:37;;;;;;;;;;;16.10;99.90;;;;;;5012470;28;19913;-66
2021/11/17 11:13:04;;;;;;;;;;;16.10;99.90;;;;;;5010682;28;19917;-66
2021/11/17 11:15:35;;;;;;;;;;;16.10;99.90;;;;;;5008238;28;19917;-68
2021/11/17 11:18:04;;;;;;;;;;;16.30;99.90;;;;;;5011707;28;19921;-67
2021/11/17 11:20:34;;;;;;;;;;;16.30;99.90;;;;;;5012246;28;20325;-68
2021/11/17 11:23:07;;;;;;;;;;;16.50;99.90;;;;;;5010168;28;19929;-66
2021/11/17 11:25:39;;;;;;;;;;;16.50;99.90;;;;;;5011826;28;19913;-67
2021/11/17 11:28:19;;;;;;;;;;;16.60;99.90;;;;;;5011807;28;19949;-67
2021/11/17 11:30:45;;;;;;;;;;;16.80;99.90;;;;;;5009734;28;20076;-67
2021/11/17 11:33:18;;;;;;;;;;;17.00;99.90;;;;;;5013985;28;19956;-67
2021/11/17 11:36:04;;;;;;;;;;;17.30;99.90;;;;;;5014698;28;20402;-68
2021/11/17 11:38:32;;;;;;;;;;;17.60;99.90;;;;;;5008785;28;20499;-69
2021/11/17 11:41:00;;;;;;;;;;;17.80;99.90;;;;;;4995792;28;19949;-66
2021/11/17 11:43:26;;;;;;;;;;;18.10;99.90;;;;;;5011893;28;19913;-68
2021/11/17 11:45:53;;;;;;;;;;;18.40;99.90;;;;;;5014445;28;19916;-67
2021/11/17 11:48:25;;;;;;;;;;;18.70;99.90;;;;;;5014787;28;19968;-66
2021/11/17 11:51:03;;;;;;;;;;;19.00;99.90;;;;;;5013582;28;19924;-66
2021/11/17 11:53:48;;;;;;;;;;;19.20;99.90;;;;;;5012205;28;20359;-67
2021/11/17 11:56:28;;;;;;;;;;;19.20;99.90;;;;;;5014638;28;19914;-67
2021/11/17 11:59:02;;;;;;;;;;;19.30;99.90;;;;;;5013958;28;20019;-66
2021/11/17 12:01:28;;;;;;;;;;;18.80;99.90;;;;;;5014708;28;20055;-67
2021/11/17 12:04:17;;;;;;;;;;;18.30;99.90;;;;;;5014442;28;19941;-68
2021/11/17 12:07:02;;;;;;;;;;;18.10;99.90;;;;;;5006220;28;20374;-67
2021/11/17 12:09:33;;;;;;;;;;;18.00;99.90;;;;;;5013542;28;19915;-66
2021/11/17 12:12:19;;;;;;;;;;;17.80;99.90;;;;;;5012194;28;19913;-67
2021/11/17 12:15:04;;;;;;;;;;;17.60;99.90;;;;;;5012919;28;20060;-67
2021/11/17 12:17:30;;;;;;;;;;;17.70;99.90;;;;;;5011026;28;19971;-66
2021/11/17 12:19:57;;;;;;;;;;;17.70;99.90;;;;;;5011937;28;20011;-67
2021/11/17 12:22:38;;;;;;;;;;;17.70;99.90;;;;;;5013550;28;20391;-67
2021/11/17 12:25:12;;;;;;;;;;;17.30;99.90;;;;;;5013068;28;20354;-67
2021/11/17 12:27:40;;;;;;;;;;;17.00;99.90;;;;;;5013308;28;20141;-66
2021/11/17 12:30:09;;;;;;;;;;;17.00;99.90;;;;;;5009307;28;20140;-67
2021/11/17 12:32:41;;;;;;;;;;;17.00;99.90;;;;;;5009929;28;19964;-68
2021/11/17 12:35:22;;;;;;;;;;;17.10;99.90;;;;;;5009436;28;19921;-65
2021/11/17 12:37:47;;;;;;;;;;;17.10;99.90;;;;;;5004654;28;19921;-66
2021/11/17 12:40:18;;;;;;;;;;;17.20;99.90;;;;;;5005641;28;19925;-66
2021/11/17 12:42:54;;;;;;;;;;;17.30;99.90;;;;;;5013296;28;19916;-66
2021/11/17 12:45:23;;;;;;;;;;;17.20;99.90;;;;;;5015971;28;19914;-66
2021/11/17 12:47:54;;;;;;;;;;;17.10;99.90;;;;;;5015910;28;19918;-67
2021/11/17 12:50:24;;;;;;;;;;;17.10;99.90;;;;;;5012447;28;19913;-66
2021/11/17 12:52:53;;;;;;;;;;;17.10;99.90;;;;;;5013452;28;19909;-67
2021/11/17 12:55:23;;;;;;;;;;;17.10;99.90;;;;;;5012730;28;19910;-67
2021/11/17 12:58:13;;;;;;;;;;;17.00;99.90;;;;;;5013160;28;19925;-66
2021/11/17 13:00:42;;;;;;;;;;;17.00;99.90;;;;;;5014078;28;19917;-66
2021/11/17 13:03:20;;;;;;;;;;;17.00;99.90;;;;;;5013991;28;19913;-66
2021/11/17 13:05:58;;;;;;;;;;;17.00;99.90;;;;;;5011529;28;20004;-67
2021/11/17 13:08:30;;;;;;;;;;;16.90;99.90;;;;;;5012072;28;19917;-66
2021/11/17 13:10:59;;;;;;;;;;;17.00;99.90;;;;;;5012401;28;19916;-66
2021/11/17 13:13:27;;;;;;;;;;;17.00;99.90;;;;;;5012945;28;19910;-67
2021/11/17 13:16:09;;;;;;;;;;;17.00;99.90;;;;;;5008839;28;20290;-65
2021/11/17 13:18:36;;;;;;;;;;;17.00;99.90;;;;;;5011699;28;19920;-66
2021/11/17 13:21:07;;;;;;;;;;;16.90;99.90;;;;;;5011694;28;20410;-66
2021/11/17 13:23:35;;;;;;;;;;;16.80;99.90;;;;;;5011775;28;19920;-66
2021/11/17 13:26:14;;;;;;;;;;;16.80;99.90;;;;;;5004079;28;19921;-67
2021/11/17 13:28:42;;;;;;;;;;;16.80;99.90;;;;;;5009927;28;20598;-68
2021/11/17 13:31:26;;;;;;;;;;;16.80;99.90;;;;;;5009935;28;19920;-65
2021/11/17 13:33:59;;;;;;;;;;;16.80;99.90;;;;;;5008328;28;19917;-66
2021/11/17 13:36:57;;;;;;;;;;;16.80;99.90;;;;;;5009292;28;19917;-66
2021/11/17 13:39:23;;;;;;;;;;;16.70;99.90;;;;;;4977043;28;20012;-66
2021/11/17 13:41:50;;;;;;;;;;;16.60;99.90;;;;;;5012024;28;19910;-66
2021/11/17 13:44:21;;;;;;;;;;;16.70;99.90;;;;;;5012397;28;19909;-66
2021/11/17 13:47:04;;;;;;;;;;;16.60;99.90;;;;;;5010827;28;19993;-66
2021/11/17 13:49:31;;;;;;;;;;;16.60;99.90;;;;;;5009943;28;19918;-66
2021/11/17 13:51:56;;;;;;;;;;;16.60;99.90;;;;;;5008622;28;20323;-67
2021/11/17 13:54:22;;;;;;;;;;;16.60;99.90;;;;;;5010352;28;20003;-68
2021/11/17 13:56:48;;;;;;;;;;;16.50;99.90;;;;;;5008701;28;19918;-66
2021/11/17 13:59:14;;;;;;;;;;;16.40;99.90;;;;;;5006307;28;20288;-67
2021/11/17 14:01:42;;;;;;;;;;;16.40;99.90;;;;;;5006279;28;20128;-66
2021/11/17 14:04:08;;;;;;;;;;;16.30;99.90;;;;;;5008165;28;20374;-67
2021/11/17 14:06:34;;;;;;;;;;;16.00;99.90;;;;;;5004690;28;19935;-66
2021/11/17 14:08:59;;;;;;;;;;;15.90;99.90;;;;;;5006637;28;19949;-65
2021/11/17 14:11:27;;;;;;;;;;;15.90;99.90;;;;;;5008330;28;20342;-66
2021/11/17 14:13:53;;;;;;;;;;;15.90;99.90;;;;;;5011193;28;20028;-66
2021/11/17 14:16:19;;;;;;;;;;;16.00;99.90;;;;;;5005108;28;19921;-65
2021/11/17 14:18:45;;;;;;;;;;;16.00;99.90;;;;;;5008399;28;20287;-65
2021/11/17 14:21:10;;;;;;;;;;;16.00;99.90;;;;;;5004877;28;20286;-65
2021/11/17 14:23:37;;;;;;;;;;;16.10;99.90;;;;;;5007857;28;19909;-65
2021/11/17 14:26:04;;;;;;;;;;;16.00;99.90;;;;;;5008873;28;19913;-66
2021/11/17 14:28:32;;;;;;;;;;;16.00;99.90;;;;;;5002186;28;19909;-66
2021/11/17 14:31:00;;;;;;;;;;;16.00;99.90;;;;;;5006456;28;20330;-67
2021/11/17 14:33:31;;;;;;;;;;;15.90;99.90;;;;;;5007294;28;20287;-66
2021/11/17 14:35:56;;;;;;;;;;;15.70;99.90;;;;;;5010239;28;19952;-68
2021/11/17 14:38:24;;;;;;;;;;;15.70;99.90;;;;;;5007113;28;19953;-66
2021/11/17 14:40:51;;;;;;;;;;;15.70;99.90;;;;;;5008967;28;19968;-68
2021/11/17 14:43:17;;;;;;;;;;;15.70;99.90;;;;;;5007685;28;19922;-65
2021/11/17 14:45:44;;;;;;;;;;;15.70;99.90;;;;;;5007950;28;20003;-66
2021/11/17 14:48:09;;;;;;;;;;;15.60;99.90;;;;;;5010200;28;20063;-66
2021/11/17 14:50:35;;;;;;;;;;;15.50;99.90;;;;;;5006462;28;19946;-66
2021/11/17 14:53:04;;;;;;;;;;;15.50;99.90;;;;;;5013082;28;20270;-66
2021/11/17 14:55:30;;;;;;;;;;;15.40;99.90;;;;;;5010670;28;19918;-66
2021/11/17 14:57:57;;;;;;;;;;;15.50;99.90;;;;;;5008666;28;20004;-65
2021/11/17 15:00:31;;;;;;;;;;;15.50;99.90;;;;;;5006324;28;19917;-65
2021/11/17 15:02:57;;;;;;;;;;;15.50;99.90;;;;;;5003843;28;19928;-67
2021/11/17 15:05:25;;;;;;;;;;;15.50;99.90;;;;;;5008135;28;20481;-66
2021/11/17 15:07:51;;;;;;;;;;;15.50;99.90;;;;;;5010313;28;20370;-67
2021/11/17 15:10:17;;;;;;;;;;;15.50;99.90;;;;;;5012973;28;19960;-65
2021/11/17 15:12:43;;;;;;;;;;;15.50;99.90;;;;;;5008787;28;20037;-66
2021/11/17 15:15:15;;;;;;;;;;;15.40;99.90;;;;;;5013201;28;19913;-67
2021/11/17 15:17:41;;;;;;;;;;;15.30;99.90;;;;;;5011192;28;20402;-67
2021/11/17 15:20:07;;;;;;;;;;;15.20;99.90;;;;;;5012081;28;20004;-68
2021/11/17 15:22:35;;;;;;;;;;;15.10;99.90;;;;;;5014146;28;19916;-65
2021/11/17 15:25:00;;;;;;;;;;;15.10;99.90;;;;;;5011883;28;20071;-66
2021/11/17 15:27:28;;;;;;;;;;;15.00;99.90;;;;;;5003990;28;19984;-67
2021/11/17 15:29:54;;;;;;;;;;;15.00;99.90;;;;;;5012086;28;19953;-66
2021/11/17 15:32:20;;;;;;;;;;;15.00;99.90;;;;;;5010057;28;19929;-64
2021/11/17 15:34:46;;;;;;;;;;;15.00;99.90;;;;;;5012736;28;19940;-66
2021/11/17 15:37:12;;;;;;;;;;;14.90;99.90;;;;;;5022391;28;20059;-65
2021/11/17 15:39:37;;;;;;;;;;;14.90;99.90;;;;;;5014446;28;20020;-68
2021/11/17 15:42:04;;;;;;;;;;;15.00;99.90;;;;;;5010628;28;19916;-68
2021/11/17 15:44:29;;;;;;;;;;;15.00;99.90;;;;;;5011103;28;19949;-66
2021/11/17 15:46:57;;;;;;;;;;;14.90;99.90;;;;;;5011052;28;19975;-68
2021/11/17 15:49:23;;;;;;;;;;;14.80;99.90;;;;;;5012564;28;20374;-67
2021/11/17 15:51:50;;;;;;;;;;;14.80;99.90;;;;;;5010460;28;20285;-68
2021/11/17 15:54:16;;;;;;;;;;;14.70;99.90;;;;;;5008302;28;19981;-67
2021/11/17 15:56:41;;;;;;;;;;;14.70;99.90;;;;;;5013794;28;20315;-67
2021/11/17 15:59:07;;;;;;;;;;;14.70;99.90;;;;;;5016827;28;19921;-67
2021/11/17 16:01:33;;;;;;;;;;;14.60;99.90;;;;;;5032335;28;19916;-67
2021/11/17 16:03:58;;;;;;;;;;;14.50;99.90;;;;;;5016362;28;19913;-68
2021/11/17 16:06:30;;;;;;;;;;;14.50;99.90;;;;;;4994031;28;19917;-65
2021/11/17 16:08:56;;;;;;;;;;;14.40;99.90;;;;;;5006172;28;19913;-67
2021/11/17 16:11:22;;;;;;;;;;;14.30;99.90;;;;;;5014037;28;19910;-67
2021/11/17 16:13:47;;;;;;;;;;;14.30;99.90;;;;;;5014160;28;19910;-67
2021/11/17 16:16:13;;;;;;;;;;;14.30;99.90;;;;;;5013095;28;19916;-66
2021/11/17 16:18:39;;;;;;;;;;;14.30;99.90;;;;;;5010864;28;19980;-68
2021/11/17 16:21:06;;;;;;;;;;;14.30;99.90;;;;;;5014534;28;19909;-68
2021/11/17 16:26:15;;;;;;;;;;;14.40;99.90;;;;;;5018264;28;20336;-79
2021/11/17 16:28:42;;;;;;;;;;;14.40;99.90;;;;;;5017736;28;19945;-78
2021/11/17 16:31:09;;;;;;;;;;;14.50;99.90;;;;;;5017233;28;20039;-77
2021/11/17 16:33:36;;;;;;;;;;;14.50;99.90;;;;;;5017629;28;20130;-79
2021/11/17 16:36:04;;;;;;;;;;;14.60;99.90;;;;;;5016878;28;19914;-78
2021/11/17 16:38:29;;;;;;;;;;;14.60;99.90;;;;;;5018060;28;19914;-78
2021/11/17 16:40:55;;;;;;;;;;;14.60;99.90;;;;;;5014607;28;19956;-79
2021/11/17 16:43:21;;;;;;;;;;;14.60;99.90;;;;;;5015506;28;19909;-79
2021/11/17 16:45:47;;;;;;;;;;;14.50;99.90;;;;;;5014974;28;19914;-78
2021/11/17 16:48:13;;;;;;;;;;;14.40;99.90;;;;;;5016048;28;19909;-79
2021/11/17 16:50:40;;;;;;;;;;;14.40;99.90;;;;;;5016063;28;19916;-79
2021/11/17 16:53:06;;;;;;;;;;;14.40;99.90;;;;;;5015321;28;19917;-77
2021/11/17 16:55:33;;;;;;;;;;;14.40;99.90;;;;;;5014096;28;19914;-77
2021/11/17 16:57:59;;;;;;;;;;;14.30;99.90;;;;;;5025590;28;19909;-78
2021/11/17 17:00:36;;;;;;;;;;;14.30;99.90;;;;;;5023524;28;19917;-78
2021/11/17 17:03:09;;;;;;;;;;;14.30;99.90;;;;;;5009171;28;19913;-78
2021/11/17 17:05:35;;;;;;;;;;;14.20;99.90;;;;;;5009031;28;19918;-77